Time;durP1;ratioP1;P1;durP2;ratioP2;P2;SDS_P1;SDS_P2;PMS_P1;PMS_P2;Temp;Humidity;BMP_temperature;BMP_pressure;BME280_temperature;BME280_humidity;BME280_pressure;Samples;Min_cycle;Max_cycle;Signal;HPM_P1;HPM_P2
2023/11/02 00:02:28;;;;;;;;;;;;;;;8.69;100.00;98963.91;4990067;28;19922;-88
2023/11/02 00:04:57;;;;;;;;;;;;;;;8.70;100.00;98960.09;4990983;28;19925;-88
2023/11/02 00:07:29;;;;;;;;;;;;;;;8.69;100.00;98972.03;4992355;28;19928;-88
2023/11/02 00:10:03;;;;;;;;;;;;;;;8.67;100.00;98963.41;4987960;28;20378;-89
2023/11/02 00:12:36;;;;;;;;;;;;;;;8.65;100.00;98958.28;4991184;28;20299;-87
2023/11/02 00:15:04;;;;;;;;;;;;;;;8.65;100.00;98954.78;4992767;28;19933;-89
2023/11/02 00:17:52;;;;;;;;;;;;;;;8.65;100.00;98957.50;4996565;28;19925;-89
2023/11/02 00:20:33;;;;;;;;;;;;;;;8.65;100.00;98952.88;4972902;28;20629;-88
2023/11/02 00:23:06;;;;;;;;;;;;;;;8.65;100.00;98962.94;4997813;28;19929;-88
2023/11/02 00:25:54;;;;;;;;;;;;;;;8.64;100.00;98950.47;4991980;28;19933;-89
2023/11/02 00:28:24;;;;;;;;;;;;;;;8.63;100.00;98944.25;4990837;28;20676;-88
2023/11/02 00:30:53;;;;;;;;;;;;;;;8.61;100.00;98951.88;4989643;28;19932;-89
2023/11/02 00:33:21;;;;;;;;;;;;;;;8.63;100.00;98943.44;4990984;28;19922;-87
2023/11/02 00:35:52;;;;;;;;;;;;;;;8.64;100.00;98943.13;4972892;28;19944;-87
2023/11/02 00:38:21;;;;;;;;;;;;;;;8.68;100.00;98954.16;4990966;28;20302;-88
2023/11/02 00:40:49;;;;;;;;;;;;;;;8.69;100.00;98947.63;4991790;28;19921;-87
2023/11/02 00:43:18;;;;;;;;;;;;;;;8.70;100.00;98938.41;4984063;28;19922;-89
2023/11/02 00:45:46;;;;;;;;;;;;;;;8.72;100.00;98941.59;4987995;28;19922;-88
2023/11/02 00:48:17;;;;;;;;;;;;;;;8.71;100.00;98929.13;4997671;28;19921;-87
2023/11/02 00:51:04;;;;;;;;;;;;;;;8.71;100.00;98936.47;4986438;28;20302;-87
2023/11/02 00:53:33;;;;;;;;;;;;;;;8.66;100.00;98932.00;4990048;28;20753;-88
2023/11/02 00:56:04;;;;;;;;;;;;;;;8.62;100.00;98931.78;4990995;28;19922;-89
2023/11/02 00:58:33;;;;;;;;;;;;;;;8.66;100.00;98926.56;4996066;28;19928;-87
2023/11/02 01:01:05;;;;;;;;;;;;;;;8.58;100.00;98917.25;4973444;28;19922;-87
2023/11/02 01:03:33;;;;;;;;;;;;;;;8.48;100.00;98915.59;4993689;28;20382;-85
2023/11/02 01:06:02;;;;;;;;;;;;;;;8.50;100.00;98926.94;4996049;28;20538;-87
2023/11/02 01:08:30;;;;;;;;;;;;;;;8.48;100.00;98923.75;4994037;28;20404;-88
2023/11/02 01:11:01;;;;;;;;;;;;;;;8.43;100.00;98917.63;4978016;28;19929;-86
2023/11/02 01:13:34;;;;;;;;;;;;;;;8.39;100.00;98909.28;5007225;28;19933;-87
2023/11/02 01:16:05;;;;;;;;;;;;;;;8.37;100.00;98913.41;4987708;28;19932;-90
2023/11/02 01:18:33;;;;;;;;;;;;;;;8.34;100.00;98903.97;4993674;28;19921;-87
2023/11/02 01:21:02;;;;;;;;;;;;;;;8.31;100.00;98901.91;4996312;28;19921;-86
2023/11/02 01:23:32;;;;;;;;;;;;;;;8.32;100.00;98909.72;4994949;28;20294;-88
2023/11/02 01:26:02;;;;;;;;;;;;;;;8.31;100.00;98897.28;4995375;28;19933;-87
2023/11/02 01:28:48;;;;;;;;;;;;;;;8.31;100.00;98902.72;4995233;28;19936;-88
2023/11/02 01:31:22;;;;;;;;;;;;;;;8.31;100.00;98888.34;4994272;28;19929;-87
2023/11/02 01:34:08;;;;;;;;;;;;;;;8.28;100.00;98889.75;5003880;28;19921;-86
2023/11/02 01:36:40;;;;;;;;;;;;;;;8.25;100.00;98881.47;4991156;28;19929;-86
2023/11/02 01:39:32;;;;;;;;;;;;;;;8.17;100.00;98866.72;4994060;28;20374;-87
2023/11/02 01:42:05;;;;;;;;;;;;;;;8.15;100.00;98864.34;4991357;28;20401;-86
2023/11/02 01:44:41;;;;;;;;;;;;;;;8.12;100.00;98867.66;5003194;28;19921;-86
2023/11/02 01:47:21;;;;;;;;;;;;;;;8.06;100.00;98857.25;4994465;28;19929;-86
2023/11/02 01:49:51;;;;;;;;;;;;;;;8.08;100.00;98861.25;4992274;28;20306;-86
2023/11/02 01:52:37;;;;;;;;;;;;;;;8.07;100.00;98856.16;4981380;28;19930;-87
2023/11/02 01:55:10;;;;;;;;;;;;;;;8.04;100.00;98862.16;4991969;28;19921;-88
2023/11/02 01:57:50;;;;;;;;;;;;;;;8.04;100.00;98862.16;4998283;28;19921;-86
2023/11/02 02:00:20;;;;;;;;;;;;;;;8.04;100.00;98857.56;4998730;28;19926;-87
2023/11/02 02:02:52;;;;;;;;;;;;;;;7.99;100.00;98855.75;4995168;28;20301;-87
2023/11/02 02:05:24;;;;;;;;;;;;;;;7.95;100.00;98854.78;5003356;28;19928;-85
2023/11/02 02:07:59;;;;;;;;;;;;;;;7.94;100.00;98853.19;5000565;28;19929;-87
2023/11/02 02:10:50;;;;;;;;;;;;;;;7.95;100.00;98838.53;4990538;28;20410;-87
2023/11/02 02:13:29;;;;;;;;;;;;;;;7.87;100.00;98846.59;4992417;28;20290;-86
2023/11/02 02:16:06;;;;;;;;;;;;;;;7.92;100.00;98841.06;4994669;28;19976;-86
2023/11/02 02:18:35;;;;;;;;;;;;;;;7.88;100.00;98834.66;4993745;28;19926;-87
2023/11/02 02:21:08;;;;;;;;;;;;;;;7.78;100.00;98833.78;4990290;28;19922;-86
2023/11/02 02:23:38;;;;;;;;;;;;;;;7.78;100.00;98838.41;4993019;28;20397;-87
2023/11/02 02:26:17;;;;;;;;;;;;;;;7.75;100.00;98839.03;4991639;28;19941;-88
2023/11/02 02:28:57;;;;;;;;;;;;;;;7.66;100.00;98839.75;4992915;28;19929;-86
2023/11/02 02:31:36;;;;;;;;;;;;;;;7.72;100.00;98845.84;4994498;28;19921;-87
2023/11/02 02:34:18;;;;;;;;;;;;;;;7.72;100.00;98842.31;4984409;28;19928;-86
2023/11/02 02:36:49;;;;;;;;;;;;;;;7.61;100.00;98831.75;4992321;28;19925;-85
2023/11/02 02:39:19;;;;;;;;;;;;;;;7.58;100.00;98828.84;4996447;28;19933;-87
2023/11/02 02:41:49;;;;;;;;;;;;;;;7.57;100.00;98830.75;4994610;28;19922;-87
2023/11/02 02:44:18;;;;;;;;;;;;;;;7.54;100.00;98825.13;4992702;28;19922;-86
2023/11/02 02:46:52;;;;;;;;;;;;;;;7.51;100.00;98825.75;4992592;28;20374;-87
2023/11/02 02:49:21;;;;;;;;;;;;;;;7.47;100.00;98809.31;4972118;28;20264;-86
2023/11/02 02:51:51;;;;;;;;;;;;;;;7.43;100.00;98798.31;4990032;28;20426;-86
2023/11/02 02:54:22;;;;;;;;;;;;;;;7.40;100.00;98798.94;4993634;28;19921;-87
2023/11/02 02:56:51;;;;;;;;;;;;;;;7.40;100.00;98790.00;4992825;28;19944;-87
2023/11/02 02:59:21;;;;;;;;;;;;;;;7.37;100.00;98780.56;4988834;28;19921;-88
2023/11/02 03:01:55;;;;;;;;;;;;;;;7.29;100.00;98790.22;4990124;28;19926;-87
2023/11/02 03:04:24;;;;;;;;;;;;;;;7.28;100.00;98788.63;4994652;28;19928;-86
2023/11/02 03:06:57;;;;;;;;;;;;;;;7.28;100.00;98785.91;4990084;28;19922;-87
2023/11/02 03:09:27;;;;;;;;;;;;;;;7.20;100.00;98778.50;4972674;28;19929;-86
2023/11/02 03:11:58;;;;;;;;;;;;;;;7.16;100.00;98780.22;4991903;28;20433;-87
2023/11/02 03:14:26;;;;;;;;;;;;;;;7.11;100.00;98767.63;4976178;28;19928;-86
2023/11/02 03:16:56;;;;;;;;;;;;;;;7.09;100.00;98756.28;4991728;28;19921;-86
2023/11/02 03:19:36;;;;;;;;;;;;;;;7.03;100.00;98754.81;4992009;28;20422;-86
2023/11/02 03:22:13;;;;;;;;;;;;;;;7.05;100.00;98762.63;4989052;28;19922;-86
2023/11/02 03:24:47;;;;;;;;;;;;;;;7.06;100.00;98756.13;4987470;28;19922;-86
2023/11/02 03:27:19;;;;;;;;;;;;;;;7.03;100.00;98765.63;4976020;28;20410;-86
2023/11/02 03:29:57;;;;;;;;;;;;;;;6.98;100.00;98774.63;4991183;28;19922;-87
2023/11/02 03:32:28;;;;;;;;;;;;;;;6.98;100.00;98765.72;4991141;28;19928;-88
2023/11/02 03:34:58;;;;;;;;;;;;;;;6.95;100.00;98752.81;4978870;28;19933;-87
2023/11/02 03:37:30;;;;;;;;;;;;;;;6.94;100.00;98740.41;4975447;28;19933;-86
2023/11/02 03:40:18;;;;;;;;;;;;;;;6.89;100.00;98738.63;4993012;28;20306;-87
2023/11/02 03:42:54;;;;;;;;;;;;;;;6.89;100.00;98730.50;4975366;28;19921;-87
2023/11/02 03:45:29;;;;;;;;;;;;;;;6.87;100.00;98726.50;4993129;28;19922;-87
2023/11/02 03:48:01;;;;;;;;;;;;;;;6.86;100.00;98722.19;4992363;28;19926;-86
2023/11/02 03:50:41;;;;;;;;;;;;;;;6.85;100.00;98723.28;4986721;28;19921;-86
2023/11/02 03:53:18;;;;;;;;;;;;;;;6.87;100.00;98713.75;4991677;28;19921;-86
2023/11/02 03:55:51;;;;;;;;;;;;;;;6.85;100.00;98704.34;4990577;28;19922;-86
2023/11/02 03:58:31;;;;;;;;;;;;;;;6.85;100.00;98696.25;4991857;28;19921;-88
2023/11/02 04:01:10;;;;;;;;;;;;;;;6.79;100.00;98700.97;4988733;28;19929;-85
2023/11/02 04:03:40;;;;;;;;;;;;;;;6.78;100.00;98700.19;4985447;28;19921;-89
2023/11/02 04:06:11;;;;;;;;;;;;;;;6.77;100.00;98684.25;4991546;28;20305;-87
2023/11/02 04:08:43;;;;;;;;;;;;;;;6.74;100.00;98680.25;4991888;28;19921;-87
2023/11/02 04:11:20;;;;;;;;;;;;;;;6.71;100.00;98678.16;4991514;28;20378;-87
2023/11/02 04:13:58;;;;;;;;;;;;;;;6.69;100.00;98666.84;4990600;28;19925;-86
2023/11/02 04:16:28;;;;;;;;;;;;;;;6.66;100.00;98672.88;4984403;28;19926;-87
2023/11/02 04:18:56;;;;;;;;;;;;;;;6.64;100.00;98675.88;4995035;28;19925;-86
2023/11/02 04:21:24;;;;;;;;;;;;;;;6.62;100.00;98672.66;4975475;28;19926;-85
2023/11/02 04:23:53;;;;;;;;;;;;;;;6.64;100.00;98673.16;4987900;28;19921;-87
2023/11/02 04:26:21;;;;;;;;;;;;;;;6.64;100.00;98661.53;4987362;28;20295;-87
2023/11/02 04:28:49;;;;;;;;;;;;;;;6.65;100.00;98665.84;4977643;28;19922;-87
2023/11/02 04:31:17;;;;;;;;;;;;;;;6.66;100.00;98648.53;4997360;28;19926;-89
2023/11/02 04:33:45;;;;;;;;;;;;;;;6.66;100.00;98642.31;4990874;28;19922;-86
2023/11/02 04:36:13;;;;;;;;;;;;;;;6.63;100.00;98639.13;4992285;28;19945;-87
2023/11/02 04:38:41;;;;;;;;;;;;;;;6.61;100.00;98637.81;4981557;28;19922;-87
2023/11/02 04:41:11;;;;;;;;;;;;;;;6.68;100.00;98638.19;4999063;28;20477;-87
2023/11/02 04:43:39;;;;;;;;;;;;;;;6.66;100.00;98621.50;4996107;28;20405;-86
2023/11/02 04:46:06;;;;;;;;;;;;;;;6.68;100.00;98616.59;4992862;28;19922;-86
2023/11/02 04:48:34;;;;;;;;;;;;;;;6.59;100.00;98618.44;5003797;28;19922;-87
2023/11/02 04:51:02;;;;;;;;;;;;;;;6.62;100.00;98615.09;4978764;28;19921;-87
2023/11/02 04:53:30;;;;;;;;;;;;;;;6.60;100.00;98612.72;4979363;28;19944;-86
2023/11/02 04:55:58;;;;;;;;;;;;;;;6.57;100.00;98607.91;4996328;28;19928;-88
2023/11/02 04:58:28;;;;;;;;;;;;;;;6.53;100.00;98592.59;4995829;28;19921;-88
2023/11/02 05:01:00;;;;;;;;;;;;;;;6.57;100.00;98585.47;4991391;28;19921;-86
2023/11/02 05:03:28;;;;;;;;;;;;;;;6.51;100.00;98543.47;4995929;28;19933;-86
2023/11/02 05:05:56;;;;;;;;;;;;;;;6.45;100.00;98543.59;4990247;28;19928;-85
2023/11/02 05:08:24;;;;;;;;;;;;;;;6.44;100.00;98541.97;4995920;28;19929;-87
2023/11/02 05:10:52;;;;;;;;;;;;;;;6.46;100.00;98549.78;4989866;28;19928;-86
2023/11/02 05:13:20;;;;;;;;;;;;;;;6.44;100.00;98541.97;4989877;28;19922;-87
2023/11/02 05:15:49;;;;;;;;;;;;;;;6.48;100.00;98534.06;4998773;28;19932;-87
2023/11/02 05:18:17;;;;;;;;;;;;;;;6.49;100.00;98522.16;4995888;28;19934;-86
2023/11/02 05:20:56;;;;;;;;;;;;;;;6.48;100.00;98531.38;4971659;28;19929;-85
2023/11/02 05:23:24;;;;;;;;;;;;;;;6.49;100.00;98515.94;4992211;28;19929;-85
2023/11/02 05:25:52;;;;;;;;;;;;;;;6.41;100.00;98515.59;4994735;28;19929;-85
2023/11/02 05:28:21;;;;;;;;;;;;;;;6.46;100.00;98501.16;4974948;28;19922;-86
2023/11/02 05:30:51;;;;;;;;;;;;;;;6.44;100.00;98508.78;4993892;28;19922;-87
2023/11/02 05:33:23;;;;;;;;;;;;;;;6.42;100.00;98500.16;4992997;28;19921;-88
2023/11/02 05:35:52;;;;;;;;;;;;;;;6.39;100.00;98481.88;4995890;28;20546;-87
2023/11/02 05:38:20;;;;;;;;;;;;;;;6.38;100.00;98482.97;4993869;28;19929;-87
2023/11/02 05:40:47;;;;;;;;;;;;;;;6.36;100.00;98479.78;4994673;28;19929;-86
2023/11/02 05:43:15;;;;;;;;;;;;;;;6.42;100.00;98481.25;4974241;28;19922;-86
2023/11/02 05:45:43;;;;;;;;;;;;;;;6.40;100.00;98491.56;4994712;28;19926;-85
2023/11/02 05:48:13;;;;;;;;;;;;;;;6.41;100.00;98480.47;4996879;28;19922;-85
2023/11/02 05:50:40;;;;;;;;;;;;;;;6.43;100.00;98463.94;4975221;28;19929;-84
2023/11/02 05:53:09;;;;;;;;;;;;;;;6.40;100.00;98453.75;4994790;28;19925;-87
2023/11/02 05:55:42;;;;;;;;;;;;;;;6.41;100.00;98455.34;4993789;28;19932;-86
2023/11/02 05:58:10;;;;;;;;;;;;;;;6.38;100.00;98440.56;4994489;28;19928;-88
2023/11/02 06:00:38;;;;;;;;;;;;;;;6.37;100.00;98420.03;4995179;28;19930;-86
2023/11/02 06:03:06;;;;;;;;;;;;;;;6.36;100.00;98417.66;4991445;28;20433;-86
2023/11/02 06:05:35;;;;;;;;;;;;;;;6.37;100.00;98420.03;4993134;28;20302;-85
2023/11/02 06:08:03;;;;;;;;;;;;;;;6.42;100.00;98421.81;4975863;28;19922;-88
2023/11/02 06:10:31;;;;;;;;;;;;;;;6.40;100.00;98411.31;4977088;28;20378;-89
2023/11/02 06:12:59;;;;;;;;;;;;;;;6.46;100.00;98401.16;4976789;28;20298;-86
2023/11/02 06:15:27;;;;;;;;;;;;;;;6.48;100.00;98393.56;4992488;28;19929;-86
2023/11/02 06:18:00;;;;;;;;;;;;;;;6.57;100.00;98393.59;4988568;28;19922;-88
2023/11/02 06:20:28;;;;;;;;;;;;;;;6.57;100.00;98386.31;4992601;28;20860;-87
2023/11/02 06:22:57;;;;;;;;;;;;;;;6.61;100.00;98381.06;4991120;28;19932;-86
2023/11/02 06:25:25;;;;;;;;;;;;;;;6.64;100.00;98375.03;4995436;28;20293;-86
2023/11/02 06:27:53;;;;;;;;;;;;;;;6.68;100.00;98369.81;4993373;28;19928;-85
2023/11/02 06:30:21;;;;;;;;;;;;;;;6.73;100.00;98388.63;4992052;28;19929;-85
2023/11/02 06:32:49;;;;;;;;;;;;;;;6.78;100.00;98399.28;4977543;28;19926;-86
2023/11/02 06:35:17;;;;;;;;;;;;;;;6.81;100.00;98385.16;4990225;28;19922;-86
2023/11/02 06:37:54;;;;;;;;;;;;;;;6.83;100.00;98382.94;4993867;28;19929;-83
2023/11/02 06:40:23;;;;;;;;;;;;;;;6.90;100.00;98402.19;4995216;28;20659;-87
2023/11/02 06:42:52;;;;;;;;;;;;;;;6.96;100.00;98387.44;4990725;28;19937;-83
2023/11/02 06:45:20;;;;;;;;;;;;;;;6.94;100.00;98381.53;4990128;28;19922;-84
2023/11/02 06:47:53;;;;;;;;;;;;;;;6.98;100.00;98387.13;4978401;28;20302;-84
2023/11/02 06:50:21;;;;;;;;;;;;;;;7.03;100.00;98386.19;4974671;28;19928;-83
2023/11/02 06:52:54;;;;;;;;;;;;;;;7.07;100.00;98379.03;4991689;28;19921;-84
2023/11/02 06:55:29;;;;;;;;;;;;;;;7.06;100.00;98375.56;4997205;28;20334;-84
2023/11/02 06:57:57;;;;;;;;;;;;;;;7.11;100.00;98378.13;4977967;28;19922;-83
2023/11/02 07:00:25;;;;;;;;;;;;;;;7.09;100.00;98361.41;4992438;28;19921;-83
2023/11/02 07:02:58;;;;;;;;;;;;;;;7.11;100.00;98359.19;4987210;28;20363;-84
2023/11/02 07:05:31;;;;;;;;;;;;;;;7.17;100.00;98364.44;4991849;28;19921;-86
2023/11/02 07:07:59;;;;;;;;;;;;;;;7.21;100.00;98365.41;4991774;28;19926;-84
2023/11/02 07:10:28;;;;;;;;;;;;;;;7.25;100.00;98345.53;4989654;28;20279;-83
2023/11/02 07:12:57;;;;;;;;;;;;;;;7.30;100.00;98352.69;4987640;28;20314;-83
2023/11/02 07:15:30;;;;;;;;;;;;;;;7.34;100.00;98344.75;4991201;28;19937;-83
2023/11/02 07:17:58;;;;;;;;;;;;;;;7.35;100.00;98338.22;4993212;28;19929;-83
2023/11/02 07:20:26;;;;;;;;;;;;;;;7.36;100.00;98335.22;4989637;28;19929;-85
2023/11/02 07:22:54;;;;;;;;;;;;;;;7.40;100.00;98336.19;4992824;28;19922;-85
2023/11/02 07:25:21;;;;;;;;;;;;;;;7.49;100.00;98322.66;4991478;28;20501;-85
2023/11/02 07:27:51;;;;;;;;;;;;;;;7.49;100.00;98312.59;4991577;28;19925;-83
2023/11/02 07:30:19;;;;;;;;;;;;;;;7.55;100.00;98307.06;4989974;28;20706;-84
2023/11/02 07:32:47;;;;;;;;;;;;;;;7.53;100.00;98293.06;4973742;28;20409;-83
2023/11/02 07:35:22;;;;;;;;;;;;;;;7.54;100.00;98276.50;4988555;28;19942;-83
2023/11/02 07:37:55;;;;;;;;;;;;;;;7.57;100.00;98262.31;4996795;28;19922;-81
2023/11/02 07:40:28;;;;;;;;;;;;;;;7.60;100.00;98263.59;4975197;28;19931;-84
2023/11/02 07:42:57;;;;;;;;;;;;;;;7.58;100.00;98263.91;4992229;28;19930;-82
2023/11/02 07:45:25;;;;;;;;;;;;;;;7.65;100.00;98244.47;4990089;28;20417;-83
2023/11/02 07:48:00;;;;;;;;;;;;;;;7.69;100.00;98231.88;4992244;28;19922;-85
2023/11/02 07:50:33;;;;;;;;;;;;;;;7.74;100.00;98228.22;4989716;28;19929;-84
2023/11/02 07:53:06;;;;;;;;;;;;;;;7.73;100.00;98219.28;4987944;28;19929;-83
2023/11/02 07:55:34;;;;;;;;;;;;;;;7.80;100.00;98224.22;4990524;28;19925;-83
2023/11/02 07:58:03;;;;;;;;;;;;;;;7.78;100.00;98197.47;4988985;28;19929;-82
2023/11/02 08:00:31;;;;;;;;;;;;;;;7.83;100.00;98204.66;4986866;28;19926;-85
2023/11/02 08:02:59;;;;;;;;;;;;;;;7.88;100.00;98193.63;4989087;28;19921;-83
2023/11/02 08:05:32;;;;;;;;;;;;;;;7.92;100.00;98199.97;4992560;28;19922;-84
2023/11/02 08:08:05;;;;;;;;;;;;;;;7.98;100.00;98203.31;4987664;28;19922;-84
2023/11/02 08:10:34;;;;;;;;;;;;;;;8.00;100.00;98209.22;4991813;28;19922;-84
2023/11/02 08:13:02;;;;;;;;;;;;;;;8.06;100.00;98199.00;4996141;28;19926;-87
2023/11/02 08:15:31;;;;;;;;;;;;;;;8.13;100.00;98162.16;4991393;28;19925;-86
2023/11/02 08:17:59;;;;;;;;;;;;;;;8.17;100.00;98143.31;4994892;28;19921;-84
2023/11/02 08:20:32;;;;;;;;;;;;;;;8.30;100.00;98161.28;4993834;28;19922;-85
2023/11/02 08:23:00;;;;;;;;;;;;;;;8.34;100.00;98140.53;4992062;28;19933;-85
2023/11/02 08:25:33;;;;;;;;;;;;;;;8.45;100.00;98113.88;4978583;28;20310;-88
2023/11/02 08:28:06;;;;;;;;;;;;;;;8.51;100.00;98069.19;4993214;28;19922;-84
2023/11/02 08:30:35;;;;;;;;;;;;;;;8.46;100.00;98066.66;4993413;28;19922;-83
2023/11/02 08:33:09;;;;;;;;;;;;;;;8.50;100.00;98066.81;4987453;28;19922;-85
2023/11/02 08:35:37;;;;;;;;;;;;;;;8.53;100.00;98074.28;4993837;28;19925;-83
2023/11/02 08:38:11;;;;;;;;;;;;;;;8.56;100.00;98079.06;4975566;28;19921;-83
2023/11/02 08:40:39;;;;;;;;;;;;;;;8.62;100.00;98069.59;4995954;28;19929;-82
2023/11/02 08:43:12;;;;;;;;;;;;;;;8.67;100.00;98080.25;4978323;28;19929;-82
2023/11/02 08:45:42;;;;;;;;;;;;;;;8.68;100.00;98064.75;4996830;28;19937;-85
2023/11/02 08:48:10;;;;;;;;;;;;;;;8.76;100.00;98046.84;4974739;28;19922;-82
2023/11/02 08:50:42;;;;;;;;;;;;;;;8.76;100.00;98042.22;4993222;28;20282;-83
2023/11/02 08:53:10;;;;;;;;;;;;;;;8.78;100.00;98047.28;4982565;28;19930;-84
2023/11/02 08:55:38;;;;;;;;;;;;;;;8.80;100.00;98051.25;4992448;28;19921;-85
2023/11/02 08:58:06;;;;;;;;;;;;;;;8.85;100.00;98061.91;4979533;28;19922;-87
2023/11/02 09:00:39;;;;;;;;;;;;;;;8.86;100.00;98068.13;4995210;28;19922;-84
2023/11/02 09:03:13;;;;;;;;;;;;;;;8.93;100.00;98081.94;4994320;28;19921;-84
2023/11/02 09:05:41;;;;;;;;;;;;;;;8.94;100.00;98088.94;4991971;28;20835;-85
2023/11/02 09:08:14;;;;;;;;;;;;;;;8.99;100.00;98098.78;4986112;28;19922;-85
2023/11/02 09:10:47;;;;;;;;;;;;;;;8.96;100.00;98111.13;4991249;28;19922;-84
2023/11/02 09:13:15;;;;;;;;;;;;;;;8.94;100.00;98075.38;4992247;28;19930;-83
2023/11/02 09:15:49;;;;;;;;;;;;;;;8.93;100.00;98035.81;4976240;28;19928;-91
2023/11/02 09:18:18;;;;;;;;;;;;;;;8.94;100.00;98023.06;4975091;28;19922;-82
2023/11/02 09:20:46;;;;;;;;;;;;;;;8.97;100.00;98006.91;4992624;28;19922;-91
2023/11/02 09:23:14;;;;;;;;;;;;;;;9.06;100.00;98031.25;4990826;28;20389;-85
2023/11/02 09:25:43;;;;;;;;;;;;;;;9.18;100.00;98023.16;4989287;28;22054;-87
2023/11/02 09:28:11;;;;;;;;;;;;;;;9.29;100.00;98038.97;4954995;28;20627;-87
2023/11/02 09:30:39;;;;;;;;;;;;;;;9.33;100.00;98031.75;4981157;28;19948;-83
2023/11/02 09:33:07;;;;;;;;;;;;;;;9.31;100.00;98021.25;4981022;28;20412;-85
2023/11/02 09:35:36;;;;;;;;;;;;;;;9.31;100.00;98023.16;4961528;28;19937;-84
2023/11/02 09:38:09;;;;;;;;;;;;;;;9.28;100.00;98012.97;4974152;28;19937;-87
2023/11/02 09:40:42;;;;;;;;;;;;;;;9.27;100.00;98005.97;4971750;28;19926;-87
2023/11/02 09:43:16;;;;;;;;;;;;;;;9.31;100.00;98010.38;4961165;28;20331;-86
2023/11/02 09:45:44;;;;;;;;;;;;;;;9.30;100.00;98014.22;4975581;28;20421;-84
2023/11/02 09:48:12;;;;;;;;;;;;;;;9.31;100.00;98023.94;4973354;28;19937;-84
2023/11/02 09:50:46;;;;;;;;;;;;;;;9.27;100.00;98027.69;4976396;28;19928;-85
2023/11/02 09:53:19;;;;;;;;;;;;;;;9.22;100.00;98006.97;4973235;28;19940;-83
2023/11/02 09:55:48;;;;;;;;;;;;;;;9.22;100.00;98017.03;4977146;28;19953;-86
2023/11/02 09:58:22;;;;;;;;;;;;;;;9.28;100.00;98005.63;4972190;28;19936;-87
2023/11/02 10:00:51;;;;;;;;;;;;;;;9.26;100.00;97991.59;4960678;28;19936;-84
2023/11/02 10:03:24;;;;;;;;;;;;;;;9.28;100.00;98002.91;4974111;28;19930;-84
2023/11/02 10:05:53;;;;;;;;;;;;;;;9.24;100.00;97980.28;4959622;28;19941;-89
2023/11/02 10:08:21;;;;;;;;;;;;;;;9.28;100.00;97964.94;4956338;28;19929;-87
2023/11/02 10:10:49;;;;;;;;;;;;;;;9.26;100.00;97942.75;4954318;28;19937;-84
2023/11/02 10:13:22;;;;;;;;;;;;;;;9.27;100.00;97935.41;4971864;28;19930;-88
2023/11/02 10:15:50;;;;;;;;;;;;;;;9.29;100.00;97925.78;4974213;28;22014;-88
2023/11/02 10:18:19;;;;;;;;;;;;;;;9.32;100.00;97952.25;4976810;28;19926;-87
2023/11/02 10:20:47;;;;;;;;;;;;;;;9.32;100.00;97933.25;4975538;28;21109;-90
2023/11/02 10:23:16;;;;;;;;;;;;;;;9.33;100.00;97915.03;4970406;28;19929;-85
2023/11/02 10:25:44;;;;;;;;;;;;;;;9.30;100.00;97919.22;4969480;28;19930;-83
2023/11/02 10:28:13;;;;;;;;;;;;;;;9.34;100.00;97905.78;4933613;28;21369;-89
2023/11/02 10:30:42;;;;;;;;;;;;;;;9.36;100.00;97923.31;4967236;28;19937;-86
2023/11/02 10:33:10;;;;;;;;;;;;;;;9.31;100.00;97915.38;4984387;28;19941;-84
2023/11/02 10:35:43;;;;;;;;;;;;;;;9.30;100.00;97905.66;4979539;28;19930;-84
2023/11/02 10:38:11;;;;;;;;;;;;;;;9.27;100.00;97908.28;4959422;28;19937;-85
2023/11/02 10:40:45;;;;;;;;;;;;;;;9.31;100.00;97909.97;4975184;28;19934;-82
2023/11/02 10:43:18;;;;;;;;;;;;;;;9.39;100.00;97919.13;4971066;28;19929;-85
2023/11/02 10:45:52;;;;;;;;;;;;;;;9.33;100.00;97915.84;4951108;28;19930;-85
2023/11/02 10:48:21;;;;;;;;;;;;;;;9.28;100.00;97898.97;4981384;28;19937;-82
2023/11/02 10:50:50;;;;;;;;;;;;;;;9.13;100.00;97893.13;4980418;28;20740;-83
2023/11/02 10:53:23;;;;;;;;;;;;;;;8.94;100.00;97893.66;4967607;28;19930;-85
2023/11/02 10:55:58;;;;;;;;;;;;;;;8.86;100.00;97883.69;4986784;28;19930;-81
2023/11/02 10:58:26;;;;;;;;;;;;;;;8.82;100.00;97874.66;4972642;28;19929;-86
2023/11/02 11:01:00;;;;;;;;;;;;;;;8.76;100.00;97876.03;4971603;28;19930;-84
2023/11/02 11:03:34;;;;;;;;;;;;;;;8.77;100.00;97851.28;4943577;28;19964;-86
2023/11/02 11:06:08;;;;;;;;;;;;;;;8.73;100.00;97836.00;4955310;28;19922;-84
2023/11/02 11:08:36;;;;;;;;;;;;;;;8.71;100.00;97841.75;4973012;28;19976;-82
2023/11/02 11:11:07;;;;;;;;;;;;;;;8.72;100.00;97846.06;4956178;28;20723;-89
2023/11/02 11:13:35;;;;;;;;;;;;;;;8.72;100.00;97850.69;4987216;28;19929;-84
2023/11/02 11:16:05;;;;;;;;;;;;;;;8.76;100.00;97846.19;4965128;28;19930;-88
2023/11/02 11:18:33;;;;;;;;;;;;;;;8.77;100.00;97832.28;4965613;28;19930;-87
2023/11/02 11:21:08;;;;;;;;;;;;;;;8.77;100.00;97821.44;4964310;28;19930;-84
2023/11/02 11:23:44;;;;;;;;;;;;;;;8.80;100.00;97820.75;4965254;28;19930;-83
2023/11/02 11:26:14;;;;;;;;;;;;;;;8.89;100.00;97811.72;4957592;28;19930;-85
2023/11/02 11:28:47;;;;;;;;;;;;;;;8.94;100.00;97798.72;4966517;28;19930;-86
2023/11/02 11:31:34;;;;;;;;;;;;;;;9.04;100.00;97799.41;4958633;28;19937;-88
2023/11/02 11:34:02;;;;;;;;;;;;;;;9.09;100.00;97810.81;4989854;28;19934;-85
2023/11/02 11:36:30;;;;;;;;;;;;;;;9.16;100.00;97797.47;4985400;28;21631;-87
2023/11/02 11:39:23;;;;;;;;;;;;;;;9.21;100.00;97785.59;4982865;28;20777;-87
2023/11/02 11:41:52;;;;;;;;;;;;;;;9.22;100.00;97779.03;4980555;28;19930;-85
2023/11/02 11:44:25;;;;;;;;;;;;;;;9.20;100.00;97784.03;4966161;28;19937;-84
2023/11/02 11:46:54;;;;;;;;;;;;;;;9.24;100.00;97773.25;4964102;28;19930;-87
2023/11/02 11:49:41;;;;;;;;;;;;;;;9.21;100.00;97776.66;4966136;28;19937;-86
2023/11/02 11:52:20;;;;;;;;;;;;;;;9.21;100.00;97773.94;4980525;28;19930;-84
2023/11/02 11:54:53;;;;;;;;;;;;;;;9.16;100.00;97777.69;4951454;28;20912;-84
2023/11/02 11:57:39;;;;;;;;;;;;;;;9.20;100.00;97770.44;4970093;28;19930;-82
2023/11/02 12:00:14;;;;;;;;;;;;;;;9.20;100.00;97751.47;4962233;28;19930;-84
2023/11/02 12:02:48;;;;;;;;;;;;;;;9.25;100.00;97739.56;4962073;28;20489;-86
2023/11/02 12:05:36;;;;;;;;;;;;;;;9.34;100.00;97734.81;4961008;28;19937;-84
2023/11/02 12:08:11;;;;;;;;;;;;;;;9.34;100.00;97740.22;4973485;28;20482;-85
2023/11/02 12:10:44;;;;;;;;;;;;;;;9.39;100.00;97725.63;4954386;28;19933;-83
2023/11/02 12:13:12;;;;;;;;;;;;;;;9.41;100.00;97715.22;4965114;28;19930;-86
2023/11/02 12:15:52;;;;;;;;;;;;;;;9.39;100.00;97723.72;4975406;28;19930;-80
2023/11/02 12:18:23;;;;;;;;;;;;;;;9.42;100.00;97714.88;4974268;28;19930;-83
2023/11/02 12:20:51;;;;;;;;;;;;;;;9.50;100.00;97719.38;4965031;28;19935;-86
2023/11/02 12:23:20;;;;;;;;;;;;;;;9.64;100.00;97713.53;4967831;28;19929;-87
2023/11/02 12:25:51;;;;;;;;;;;;;;;9.73;100.00;97715.31;4990810;28;19936;-83
2023/11/02 12:28:20;;;;;;;;;;;;;;;9.75;100.00;97702.97;4948061;28;19929;-82
2023/11/02 12:30:48;;;;;;;;;;;;;;;9.77;100.00;97697.19;4964040;28;19929;-85
2023/11/02 12:33:20;;;;;;;;;;;;;;;9.74;100.00;97706.03;4969267;28;20006;-82
2023/11/02 12:35:52;;;;;;;;;;;;;;;9.77;100.00;97710.78;4986981;28;19926;-84
2023/11/02 12:38:34;;;;;;;;;;;;;;;9.80;100.00;97712.78;4967323;28;19930;-81
2023/11/02 12:41:05;;;;;;;;;;;;;;;9.78;100.00;97690.63;4987441;28;19929;-85
2023/11/02 12:43:40;;;;;;;;;;;;;;;9.82;100.00;97710.53;4955757;28;20382;-84
2023/11/02 12:46:12;;;;;;;;;;;;;;;9.86;100.00;97698.59;4979865;28;19930;-86
2023/11/02 12:48:42;;;;;;;;;;;;;;;9.93;100.00;97708.88;4983402;28;19930;-81
2023/11/02 12:51:16;;;;;;;;;;;;;;;9.99;100.00;97718.31;4985658;28;19937;-86
2023/11/02 12:53:46;;;;;;;;;;;;;;;9.97;100.00;97700.78;4979851;28;21214;-88
2023/11/02 12:56:20;;;;;;;;;;;;;;;9.97;100.00;97684.50;4969585;28;19930;-82
2023/11/02 12:58:56;;;;;;;;;;;;;;;10.01;100.00;97688.91;4989355;28;19929;-83
2023/11/02 13:01:40;;;;;;;;;;;;;;;10.01;100.00;97669.88;4970184;28;20318;-84
2023/11/02 13:04:08;;;;;;;;;;;;;;;10.07;100.00;97666.88;4959707;28;19937;-85
2023/11/02 13:06:36;;;;;;;;;;;;;;;10.10;100.00;97701.53;4985437;28;19930;-86
2023/11/02 13:09:13;;;;;;;;;;;;;;;10.16;100.00;97702.84;4967100;28;19930;-84